sensor_id;sensor_type;location;lat;lon;timestamp;P1;P2;P0
36453;PMS5003;22478;51.740;-1.314;2022-09-09T00:01:58;282;282;
36453;PMS5003;22478;51.740;-1.314;2022-09-09T00:04:29;264;263;
36453;PMS5003;22478;51.740;-1.314;2022-09-09T00:07:00;268;266;
36453;PMS5003;22478;51.740;-1.314;2022-09-09T00:09:35;265;263;
36453;PMS5003;22478;51.740;-1.314;2022-09-09T00:12:12;267;266;
36453;PMS5003;22478;51.740;-1.314;2022-09-09T00:14:46;276;274;
36453;PMS5003;22478;51.740;-1.314;2022-09-09T00:17:20;268;264;
36453;PMS5003;22478;51.740;-1.314;2022-09-09T00:19:58;260;259;
36453;PMS5003;22478;51.740;-1.314;2022-09-09T00:22:29;268;266;
36453;PMS5003;22478;51.740;-1.314;2022-09-09T00:25:01;273;268;
36453;PMS5003;22478;51.740;-1.314;2022-09-09T00:27:37;262;262;
36453;PMS5003;22478;51.740;-1.314;2022-09-09T00:30:17;257;255;
36453;PMS5003;22478;51.740;-1.314;2022-09-09T00:32:45;272;270;
36453;PMS5003;22478;51.740;-1.314;2022-09-09T00:35:16;282;282;
36453;PMS5003;22478;51.740;-1.314;2022-09-09T00:37:46;284;284;
36453;PMS5003;22478;51.740;-1.314;2022-09-09T00:40:18;277;276;
36453;PMS5003;22478;51.740;-1.314;2022-09-09T00:42:51;273;272;
36453;PMS5003;22478;51.740;-1.314;2022-09-09T00:45:43;271;269;
36453;PMS5003;22478;51.740;-1.314;2022-09-09T00:48:20;265;262;
36453;PMS5003;22478;51.740;-1.314;2022-09-09T00:50:52;261;261;
36453;PMS5003;22478;51.740;-1.314;2022-09-09T00:53:26;261;259;
36453;PMS5003;22478;51.740;-1.314;2022-09-09T00:56:05;259;259;
36453;PMS5003;22478;51.740;-1.314;2022-09-09T00:58:38;252;250;
36453;PMS5003;22478;51.740;-1.314;2022-09-09T01:01:09;261;259;
36453;PMS5003;22478;51.740;-1.314;2022-09-09T01:03:39;252;252;
36453;PMS5003;22478;51.740;-1.314;2022-09-09T01:06:14;265;265;
36453;PMS5003;22478;51.740;-1.314;2022-09-09T01:08:52;277;274;
36453;PMS5003;22478;51.740;-1.314;2022-09-09T01:11:32;262;260;
36453;PMS5003;22478;51.740;-1.314;2022-09-09T01:14:10;282;282;
36453;PMS5003;22478;51.740;-1.314;2022-09-09T01:16:46;283;282;
36453;PMS5003;22478;51.740;-1.314;2022-09-09T01:19:17;258;254;
36453;PMS5003;22478;51.740;-1.314;2022-09-09T01:21:54;255;252;
36453;PMS5003;22478;51.740;-1.314;2022-09-09T01:24:31;248;248;
36453;PMS5003;22478;51.740;-1.314;2022-09-09T01:27:05;267;266;
36453;PMS5003;22478;51.740;-1.314;2022-09-09T01:29:34;272;272;
36453;PMS5003;22478;51.740;-1.314;2022-09-09T01:32:02;291;287;
36453;PMS5003;22478;51.740;-1.314;2022-09-09T01:35:04;305;303;
36453;PMS5003;22478;51.740;-1.314;2022-09-09T01:37:34;315;314;
36453;PMS5003;22478;51.740;-1.314;2022-09-09T01:40:01;267;265;
36453;PMS5003;22478;51.740;-1.314;2022-09-09T01:42:28;284;284;
36453;PMS5003;22478;51.740;-1.314;2022-09-09T01:44:56;275;275;
36453;PMS5003;22478;51.740;-1.314;2022-09-09T01:47:24;272;272;
36453;PMS5003;22478;51.740;-1.314;2022-09-09T01:49:51;279;279;
36453;PMS5003;22478;51.740;-1.314;2022-09-09T01:52:18;271;270;
36453;PMS5003;22478;51.740;-1.314;2022-09-09T01:54:46;285;281;
36453;PMS5003;22478;51.740;-1.314;2022-09-09T01:57:15;283;280;
36453;PMS5003;22478;51.740;-1.314;2022-09-09T01:59:50;286;283;
36453;PMS5003;22478;51.740;-1.314;2022-09-09T02:02:29;259;259;
36453;PMS5003;22478;51.740;-1.314;2022-09-09T02:05:02;274;273;
36453;PMS5003;22478;51.740;-1.314;2022-09-09T02:07:39;261;260;
36453;PMS5003;22478;51.740;-1.314;2022-09-09T02:10:09;261;261;
36453;PMS5003;22478;51.740;-1.314;2022-09-09T02:12:39;265;262;
36453;PMS5003;22478;51.740;-1.314;2022-09-09T02:15:12;272;272;
36453;PMS5003;22478;51.740;-1.314;2022-09-09T02:17:45;280;279;
36453;PMS5003;22478;51.740;-1.314;2022-09-09T02:20:14;299;296;
36453;PMS5003;22478;51.740;-1.314;2022-09-09T02:22:44;292;292;
36453;PMS5003;22478;51.740;-1.314;2022-09-09T02:25:16;300;297;
36453;PMS5003;22478;51.740;-1.314;2022-09-09T02:27:47;271;270;
36453;PMS5003;22478;51.740;-1.314;2022-09-09T02:30:16;286;286;
36453;PMS5003;22478;51.740;-1.314;2022-09-09T02:32:45;280;279;
36453;PMS5003;22478;51.740;-1.314;2022-09-09T02:35:14;294;294;
36453;PMS5003;22478;51.740;-1.314;2022-09-09T02:37:45;306;303;
36453;PMS5003;22478;51.740;-1.314;2022-09-09T02:40:14;300;298;
36453;PMS5003;22478;51.740;-1.314;2022-09-09T02:42:42;307;305;
36453;PMS5003;22478;51.740;-1.314;2022-09-09T02:45:12;309;306;
36453;PMS5003;22478;51.740;-1.314;2022-09-09T02:47:43;322;322;
36453;PMS5003;22478;51.740;-1.314;2022-09-09T02:50:17;315;315;
36453;PMS5003;22478;51.740;-1.314;2022-09-09T02:52:54;308;307;
36453;PMS5003;22478;51.740;-1.314;2022-09-09T02:55:33;325;323;
36453;PMS5003;22478;51.740;-1.314;2022-09-09T02:58:05;310;304;
36453;PMS5003;22478;51.740;-1.314;2022-09-09T03:00:35;312;309;
36453;PMS5003;22478;51.740;-1.314;2022-09-09T03:03:02;322;317;
36453;PMS5003;22478;51.740;-1.314;2022-09-09T03:05:31;317;314;
36453;PMS5003;22478;51.740;-1.314;2022-09-09T03:07:58;353;350;
36453;PMS5003;22478;51.740;-1.314;2022-09-09T03:10:26;322;321;
36453;PMS5003;22478;51.740;-1.314;2022-09-09T03:12:53;295;295;
36453;PMS5003;22478;51.740;-1.314;2022-09-09T03:15:20;295;291;
36453;PMS5003;22478;51.740;-1.314;2022-09-09T03:17:47;332;329;
36453;PMS5003;22478;51.740;-1.314;2022-09-09T03:20:14;309;304;
36453;PMS5003;22478;51.740;-1.314;2022-09-09T03:22:41;327;327;
36453;PMS5003;22478;51.740;-1.314;2022-09-09T03:25:09;323;321;
36453;PMS5003;22478;51.740;-1.314;2022-09-09T03:27:36;315;314;
36453;PMS5003;22478;51.740;-1.314;2022-09-09T03:30:03;323;319;
36453;PMS5003;22478;51.740;-1.314;2022-09-09T03:32:31;327;322;
36453;PMS5003;22478;51.740;-1.314;2022-09-09T03:34:59;326;322;
36453;PMS5003;22478;51.740;-1.314;2022-09-09T03:37:26;323;319;
36453;PMS5003;22478;51.740;-1.314;2022-09-09T03:39:53;319;317;
36453;PMS5003;22478;51.740;-1.314;2022-09-09T03:42:20;323;318;
36453;PMS5003;22478;51.740;-1.314;2022-09-09T03:44:48;320;320;
36453;PMS5003;22478;51.740;-1.314;2022-09-09T03:47:16;295;291;
36453;PMS5003;22478;51.740;-1.314;2022-09-09T03:49:43;308;301;
36453;PMS5003;22478;51.740;-1.314;2022-09-09T03:52:11;303;301;
36453;PMS5003;22478;51.740;-1.314;2022-09-09T03:54:39;306;301;
36453;PMS5003;22478;51.740;-1.314;2022-09-09T03:57:06;313;312;
36453;PMS5003;22478;51.740;-1.314;2022-09-09T03:59:33;310;307;
36453;PMS5003;22478;51.740;-1.314;2022-09-09T04:02:01;273;273;
36453;PMS5003;22478;51.740;-1.314;2022-09-09T04:04:28;261;258;
36453;PMS5003;22478;51.740;-1.314;2022-09-09T04:06:55;260;257;
36453;PMS5003;22478;51.740;-1.314;2022-09-09T04:09:23;264;264;
36453;PMS5003;22478;51.740;-1.314;2022-09-09T04:11:50;263;262;
36453;PMS5003;22478;51.740;-1.314;2022-09-09T04:14:17;258;254;
36453;PMS5003;22478;51.740;-1.314;2022-09-09T04:16:45;253;252;
36453;PMS5003;22478;51.740;-1.314;2022-09-09T04:19:13;267;263;
36453;PMS5003;22478;51.740;-1.314;2022-09-09T04:21:40;263;262;
36453;PMS5003;22478;51.740;-1.314;2022-09-09T04:24:08;252;251;
36453;PMS5003;22478;51.740;-1.314;2022-09-09T04:26:36;254;252;
36453;PMS5003;22478;51.740;-1.314;2022-09-09T04:29:03;268;264;
36453;PMS5003;22478;51.740;-1.314;2022-09-09T04:31:32;259;259;
36453;PMS5003;22478;51.740;-1.314;2022-09-09T04:33:59;260;260;
36453;PMS5003;22478;51.740;-1.314;2022-09-09T04:36:26;286;281;
36453;PMS5003;22478;51.740;-1.314;2022-09-09T04:38:53;304;302;
36453;PMS5003;22478;51.740;-1.314;2022-09-09T04:41:20;307;305;
36453;PMS5003;22478;51.740;-1.314;2022-09-09T04:43:47;306;302;
36453;PMS5003;22478;51.740;-1.314;2022-09-09T04:46:15;304;300;
36453;PMS5003;22478;51.740;-1.314;2022-09-09T04:48:42;294;290;
36453;PMS5003;22478;51.740;-1.314;2022-09-09T04:51:11;298;295;
36453;PMS5003;22478;51.740;-1.314;2022-09-09T04:53:39;305;304;
36453;PMS5003;22478;51.740;-1.314;2022-09-09T04:56:07;307;303;
36453;PMS5003;22478;51.740;-1.314;2022-09-09T04:58:36;293;290;
36453;PMS5003;22478;51.740;-1.314;2022-09-09T05:01:05;302;302;
36453;PMS5003;22478;51.740;-1.314;2022-09-09T05:03:33;318;316;
36453;PMS5003;22478;51.740;-1.314;2022-09-09T05:06:04;306;304;
36453;PMS5003;22478;51.740;-1.314;2022-09-09T05:08:32;286;284;
36453;PMS5003;22478;51.740;-1.314;2022-09-09T05:11:00;295;295;
36453;PMS5003;22478;51.740;-1.314;2022-09-09T05:13:27;299;297;
36453;PMS5003;22478;51.740;-1.314;2022-09-09T05:15:54;287;285;
36453;PMS5003;22478;51.740;-1.314;2022-09-09T05:18:21;283;282;
36453;PMS5003;22478;51.740;-1.314;2022-09-09T05:20:49;279;277;
36453;PMS5003;22478;51.740;-1.314;2022-09-09T05:23:16;271;271;
36453;PMS5003;22478;51.740;-1.314;2022-09-09T05:25:43;274;268;
36453;PMS5003;22478;51.740;-1.314;2022-09-09T05:28:10;281;279;
36453;PMS5003;22478;51.740;-1.314;2022-09-09T05:30:38;292;291;
36453;PMS5003;22478;51.740;-1.314;2022-09-09T05:33:05;280;277;
36453;PMS5003;22478;51.740;-1.314;2022-09-09T05:35:32;284;280;
36453;PMS5003;22478;51.740;-1.314;2022-09-09T05:38:00;298;297;
36453;PMS5003;22478;51.740;-1.314;2022-09-09T05:40:27;303;299;
36453;PMS5003;22478;51.740;-1.314;2022-09-09T05:42:55;296;296;
36453;PMS5003;22478;51.740;-1.314;2022-09-09T05:45:26;351;349;
36453;PMS5003;22478;51.740;-1.314;2022-09-09T05:47:53;279;276;
36453;PMS5003;22478;51.740;-1.314;2022-09-09T05:50:20;265;262;
36453;PMS5003;22478;51.740;-1.314;2022-09-09T05:52:48;271;268;
36453;PMS5003;22478;51.740;-1.314;2022-09-09T05:55:15;277;274;
36453;PMS5003;22478;51.740;-1.314;2022-09-09T05:57:42;287;287;
36453;PMS5003;22478;51.740;-1.314;2022-09-09T06:00:15;266;264;
36453;PMS5003;22478;51.740;-1.314;2022-09-09T06:02:42;313;310;
36453;PMS5003;22478;51.740;-1.314;2022-09-09T06:05:09;277;276;
36453;PMS5003;22478;51.740;-1.314;2022-09-09T06:07:36;281;281;
36453;PMS5003;22478;51.740;-1.314;2022-09-09T06:10:04;286;285;
36453;PMS5003;22478;51.740;-1.314;2022-09-09T06:12:31;303;302;
36453;PMS5003;22478;51.740;-1.314;2022-09-09T06:14:59;300;297;
36453;PMS5003;22478;51.740;-1.314;2022-09-09T06:17:26;293;293;
36453;PMS5003;22478;51.740;-1.314;2022-09-09T06:19:53;283;282;
36453;PMS5003;22478;51.740;-1.314;2022-09-09T06:22:20;270;267;
36453;PMS5003;22478;51.740;-1.314;2022-09-09T06:24:47;273;272;
36453;PMS5003;22478;51.740;-1.314;2022-09-09T06:27:14;274;274;
36453;PMS5003;22478;51.740;-1.314;2022-09-09T06:29:41;285;281;
36453;PMS5003;22478;51.740;-1.314;2022-09-09T06:32:09;288;287;
36453;PMS5003;22478;51.740;-1.314;2022-09-09T06:34:35;279;277;
36453;PMS5003;22478;51.740;-1.314;2022-09-09T06:37:03;283;279;
36453;PMS5003;22478;51.740;-1.314;2022-09-09T06:39:30;287;285;
36453;PMS5003;22478;51.740;-1.314;2022-09-09T06:41:57;283;280;
36453;PMS5003;22478;51.740;-1.314;2022-09-09T06:44:24;278;276;
36453;PMS5003;22478;51.740;-1.314;2022-09-09T06:46:52;276;275;
36453;PMS5003;22478;51.740;-1.314;2022-09-09T06:49:19;298;297;
36453;PMS5003;22478;51.740;-1.314;2022-09-09T06:51:47;267;266;
36453;PMS5003;22478;51.740;-1.314;2022-09-09T06:54:14;293;291;
36453;PMS5003;22478;51.740;-1.314;2022-09-09T06:56:42;262;257;
36453;PMS5003;22478;51.740;-1.314;2022-09-09T06:59:10;278;276;
36453;PMS5003;22478;51.740;-1.314;2022-09-09T07:01:38;272;270;
36453;PMS5003;22478;51.740;-1.314;2022-09-09T07:04:07;306;302;
36453;PMS5003;22478;51.740;-1.314;2022-09-09T07:06:35;307;303;
36453;PMS5003;22478;51.740;-1.314;2022-09-09T07:09:04;290;288;
36453;PMS5003;22478;51.740;-1.314;2022-09-09T07:11:33;316;315;
36453;PMS5003;22478;51.740;-1.314;2022-09-09T07:14:04;320;314;
36453;PMS5003;22478;51.740;-1.314;2022-09-09T07:16:31;322;317;
36453;PMS5003;22478;51.740;-1.314;2022-09-09T07:18:58;316;310;
36453;PMS5003;22478;51.740;-1.314;2022-09-09T07:21:26;346;346;
36453;PMS5003;22478;51.740;-1.314;2022-09-09T07:23:55;318;314;
36453;PMS5003;22478;51.740;-1.314;2022-09-09T07:26:23;292;290;
36453;PMS5003;22478;51.740;-1.314;2022-09-09T07:28:51;306;301;
36453;PMS5003;22478;51.740;-1.314;2022-09-09T07:31:20;260;255;
36453;PMS5003;22478;51.740;-1.314;2022-09-09T07:33:49;317;316;
36453;PMS5003;22478;51.740;-1.314;2022-09-09T07:36:18;311;307;
36453;PMS5003;22478;51.740;-1.314;2022-09-09T07:38:46;297;293;
36453;PMS5003;22478;51.740;-1.314;2022-09-09T07:41:16;276;272;
36453;PMS5003;22478;51.740;-1.314;2022-09-09T07:43:47;260;256;
36453;PMS5003;22478;51.740;-1.314;2022-09-09T07:46:16;260;259;
36453;PMS5003;22478;51.740;-1.314;2022-09-09T07:48:45;265;260;
36453;PMS5003;22478;51.740;-1.314;2022-09-09T07:51:15;283;282;
36453;PMS5003;22478;51.740;-1.314;2022-09-09T07:53:43;260;260;
36453;PMS5003;22478;51.740;-1.314;2022-09-09T07:56:12;283;280;
36453;PMS5003;22478;51.740;-1.314;2022-09-09T07:58:44;270;269;
36453;PMS5003;22478;51.740;-1.314;2022-09-09T08:01:13;275;272;
36453;PMS5003;22478;51.740;-1.314;2022-09-09T08:03:42;276;275;
36453;PMS5003;22478;51.740;-1.314;2022-09-09T08:06:09;279;278;
36453;PMS5003;22478;51.740;-1.314;2022-09-09T08:08:37;282;281;
36453;PMS5003;22478;51.740;-1.314;2022-09-09T08:11:06;257;254;
36453;PMS5003;22478;51.740;-1.314;2022-09-09T08:13:36;244;243;
36453;PMS5003;22478;51.740;-1.314;2022-09-09T08:16:05;340;340;
36453;PMS5003;22478;51.740;-1.314;2022-09-09T08:18:34;293;293;
36453;PMS5003;22478;51.740;-1.314;2022-09-09T08:21:06;293;292;
36453;PMS5003;22478;51.740;-1.314;2022-09-09T08:23:35;295;293;
36453;PMS5003;22478;51.740;-1.314;2022-09-09T08:26:03;284;281;
36453;PMS5003;22478;51.740;-1.314;2022-09-09T08:28:32;301;300;
36453;PMS5003;22478;51.740;-1.314;2022-09-09T08:31:07;287;285;
36453;PMS5003;22478;51.740;-1.314;2022-09-09T08:33:37;304;304;
36453;PMS5003;22478;51.740;-1.314;2022-09-09T08:36:05;241;241;
36453;PMS5003;22478;51.740;-1.314;2022-09-09T08:38:35;328;327;
36453;PMS5003;22478;51.740;-1.314;2022-09-09T08:41:07;277;276;
36453;PMS5003;22478;51.740;-1.314;2022-09-09T08:43:46;269;269;
36453;PMS5003;22478;51.740;-1.314;2022-09-09T08:46:16;281;281;
36453;PMS5003;22478;51.740;-1.314;2022-09-09T08:48:52;292;292;
36453;PMS5003;22478;51.740;-1.314;2022-09-09T08:51:25;287;286;
36453;PMS5003;22478;51.740;-1.314;2022-09-09T08:53:55;287;285;
36453;PMS5003;22478;51.740;-1.314;2022-09-09T08:56:28;290;289;
36453;PMS5003;22478;51.740;-1.314;2022-09-09T08:58:59;249;248;
36453;PMS5003;22478;51.740;-1.314;2022-09-09T09:01:32;278;276;
36453;PMS5003;22478;51.740;-1.314;2022-09-09T09:04:13;288;288;
36453;PMS5003;22478;51.740;-1.314;2022-09-09T09:06:52;322;320;
36453;PMS5003;22478;51.740;-1.314;2022-09-09T09:09:27;290;290;
36453;PMS5003;22478;51.740;-1.314;2022-09-09T09:12:06;246;245;
36453;PMS5003;22478;51.740;-1.314;2022-09-09T09:14:42;265;264;
36453;PMS5003;22478;51.740;-1.314;2022-09-09T09:17:13;264;264;
36453;PMS5003;22478;51.740;-1.314;2022-09-09T09:19:43;264;264;
36453;PMS5003;22478;51.740;-1.314;2022-09-09T09:22:14;261;257;
36453;PMS5003;22478;51.740;-1.314;2022-09-09T09:24:47;265;265;
36453;PMS5003;22478;51.740;-1.314;2022-09-09T09:27:33;281;281;
36453;PMS5003;22478;51.740;-1.314;2022-09-09T09:30:05;269;269;
36453;PMS5003;22478;51.740;-1.314;2022-09-09T09:32:42;276;276;
36453;PMS5003;22478;51.740;-1.314;2022-09-09T09:35:15;281;278;
36453;PMS5003;22478;51.740;-1.314;2022-09-09T09:37:42;261;261;
36453;PMS5003;22478;51.740;-1.314;2022-09-09T09:40:09;268;266;
36453;PMS5003;22478;51.740;-1.314;2022-09-09T09:42:37;260;260;
36453;PMS5003;22478;51.740;-1.314;2022-09-09T09:45:15;269;267;
36453;PMS5003;22478;51.740;-1.314;2022-09-09T09:47:57;265;265;
36453;PMS5003;22478;51.740;-1.314;2022-09-09T09:50:25;260;260;
36453;PMS5003;22478;51.740;-1.314;2022-09-09T09:52:54;248;246;
36453;PMS5003;22478;51.740;-1.314;2022-09-09T09:55:22;248;248;
36453;PMS5003;22478;51.740;-1.314;2022-09-09T09:57:50;253;252;
36453;PMS5003;22478;51.740;-1.314;2022-09-09T10:00:18;239;238;
36453;PMS5003;22478;51.740;-1.314;2022-09-09T10:02:47;236;236;
36453;PMS5003;22478;51.740;-1.314;2022-09-09T10:05:17;256;256;
36453;PMS5003;22478;51.740;-1.314;2022-09-09T10:07:46;288;288;
36453;PMS5003;22478;51.740;-1.314;2022-09-09T10:10:27;251;251;
36453;PMS5003;22478;51.740;-1.314;2022-09-09T10:13:09;261;261;
36453;PMS5003;22478;51.740;-1.314;2022-09-09T10:15:43;268;267;
36453;PMS5003;22478;51.740;-1.314;2022-09-09T10:18:22;268;266;
36453;PMS5003;22478;51.740;-1.314;2022-09-09T10:21:03;281;281;
36453;PMS5003;22478;51.740;-1.314;2022-09-09T10:23:45;284;284;
36453;PMS5003;22478;51.740;-1.314;2022-09-09T10:26:26;265;265;
36453;PMS5003;22478;51.740;-1.314;2022-09-09T10:29:06;277;277;
36453;PMS5003;22478;51.740;-1.314;2022-09-09T10:31:47;259;259;
36453;PMS5003;22478;51.740;-1.314;2022-09-09T10:34:33;265;265;
36453;PMS5003;22478;51.740;-1.314;2022-09-09T10:37:15;253;252;
36453;PMS5003;22478;51.740;-1.314;2022-09-09T10:39:49;255;255;
36453;PMS5003;22478;51.740;-1.314;2022-09-09T10:42:26;270;268;
36453;PMS5003;22478;51.740;-1.314;2022-09-09T10:45:01;261;261;
36453;PMS5003;22478;51.740;-1.314;2022-09-09T10:47:45;239;239;
36453;PMS5003;22478;51.740;-1.314;2022-09-09T10:50:36;253;252;
36453;PMS5003;22478;51.740;-1.314;2022-09-09T10:53:14;255;255;
36453;PMS5003;22478;51.740;-1.314;2022-09-09T10:55:50;281;280;
36453;PMS5003;22478;51.740;-1.314;2022-09-09T10:58:25;276;276;
36453;PMS5003;22478;51.740;-1.314;2022-09-09T11:00:57;253;252;
36453;PMS5003;22478;51.740;-1.314;2022-09-09T11:03:28;254;254;
36453;PMS5003;22478;51.740;-1.314;2022-09-09T11:05:59;259;257;
36453;PMS5003;22478;51.740;-1.314;2022-09-09T11:08:31;350;350;
36453;PMS5003;22478;51.740;-1.314;2022-09-09T11:11:02;346;343;
36453;PMS5003;22478;51.740;-1.314;2022-09-09T11:13:33;336;335;
36453;PMS5003;22478;51.740;-1.314;2022-09-09T11:16:16;310;310;
36453;PMS5003;22478;51.740;-1.314;2022-09-09T11:18:48;288;288;
36453;PMS5003;22478;51.740;-1.314;2022-09-09T11:21:19;257;254;
36453;PMS5003;22478;51.740;-1.314;2022-09-09T11:23:51;275;274;
36453;PMS5003;22478;51.740;-1.314;2022-09-09T11:26:25;267;266;
36453;PMS5003;22478;51.740;-1.314;2022-09-09T11:29:02;263;263;
36453;PMS5003;22478;51.740;-1.314;2022-09-09T11:31:46;237;237;
36453;PMS5003;22478;51.740;-1.314;2022-09-09T11:34:26;287;286;
36453;PMS5003;22478;51.740;-1.314;2022-09-09T11:37:07;298;298;
36453;PMS5003;22478;51.740;-1.314;2022-09-09T11:39:47;287;285;
36453;PMS5003;22478;51.740;-1.314;2022-09-09T11:42:27;300;298;
36453;PMS5003;22478;51.740;-1.314;2022-09-09T11:44:54;281;281;
36453;PMS5003;22478;51.740;-1.314;2022-09-09T11:47:23;261;261;
36453;PMS5003;22478;51.740;-1.314;2022-09-09T11:49:52;257;255;
36453;PMS5003;22478;51.740;-1.314;2022-09-09T11:52:21;262;261;
36453;PMS5003;22478;51.740;-1.314;2022-09-09T11:54:50;362;362;
36453;PMS5003;22478;51.740;-1.314;2022-09-09T11:57:22;316;314;
36453;PMS5003;22478;51.740;-1.314;2022-09-09T11:59:55;277;277;
36453;PMS5003;22478;51.740;-1.314;2022-09-09T12:02:22;264;262;
36453;PMS5003;22478;51.740;-1.314;2022-09-09T12:04:55;317;317;
36453;PMS5003;22478;51.740;-1.314;2022-09-09T12:07:28;345;345;
36453;PMS5003;22478;51.740;-1.314;2022-09-09T12:10:02;399;386;
36453;PMS5003;22478;51.740;-1.314;2022-09-09T12:12:33;344;344;
36453;PMS5003;22478;51.740;-1.314;2022-09-09T12:15:18;338;334;
36453;PMS5003;22478;51.740;-1.314;2022-09-09T12:17:48;328;326;
36453;PMS5003;22478;51.740;-1.314;2022-09-09T12:20:19;357;357;
36453;PMS5003;22478;51.740;-1.314;2022-09-09T12:22:52;318;316;
36453;PMS5003;22478;51.740;-1.314;2022-09-09T12:25:32;369;369;
36453;PMS5003;22478;51.740;-1.314;2022-09-09T12:28:14;375;373;
36453;PMS5003;22478;51.740;-1.314;2022-09-09T12:30:46;337;336;
36453;PMS5003;22478;51.740;-1.314;2022-09-09T12:33:19;293;293;
36453;PMS5003;22478;51.740;-1.314;2022-09-09T12:35:49;327;327;
36453;PMS5003;22478;51.740;-1.314;2022-09-09T12:38:24;339;338;
36453;PMS5003;22478;51.740;-1.314;2022-09-09T12:40:57;364;364;
36453;PMS5003;22478;51.740;-1.314;2022-09-09T12:43:25;323;323;
36453;PMS5003;22478;51.740;-1.314;2022-09-09T12:45:54;380;379;
36453;PMS5003;22478;51.740;-1.314;2022-09-09T12:48:27;399;398;
36453;PMS5003;22478;51.740;-1.314;2022-09-09T12:50:58;336;336;
36453;PMS5003;22478;51.740;-1.314;2022-09-09T12:53:26;274;274;
36453;PMS5003;22478;51.740;-1.314;2022-09-09T12:55:56;276;276;
36453;PMS5003;22478;51.740;-1.314;2022-09-09T12:58:26;290;290;
36453;PMS5003;22478;51.740;-1.314;2022-09-09T13:00:54;315;313;
36453;PMS5003;22478;51.740;-1.314;2022-09-09T13:03:23;285;285;
36453;PMS5003;22478;51.740;-1.314;2022-09-09T13:05:51;297;297;
36453;PMS5003;22478;51.740;-1.314;2022-09-09T13:08:19;290;289;
36453;PMS5003;22478;51.740;-1.314;2022-09-09T13:10:48;288;287;
36453;PMS5003;22478;51.740;-1.314;2022-09-09T13:13:21;283;281;
36453;PMS5003;22478;51.740;-1.314;2022-09-09T13:15:52;277;277;
36453;PMS5003;22478;51.740;-1.314;2022-09-09T13:18:23;278;278;
36453;PMS5003;22478;51.740;-1.314;2022-09-09T13:20:53;275;274;
36453;PMS5003;22478;51.740;-1.314;2022-09-09T13:23:20;274;274;
36453;PMS5003;22478;51.740;-1.314;2022-09-09T13:25:54;286;285;
36453;PMS5003;22478;51.740;-1.314;2022-09-09T13:28:23;291;288;
36453;PMS5003;22478;51.740;-1.314;2022-09-09T13:30:55;268;268;
36453;PMS5003;22478;51.740;-1.314;2022-09-09T13:33:28;281;281;
36453;PMS5003;22478;51.740;-1.314;2022-09-09T13:35:57;294;294;
36453;PMS5003;22478;51.740;-1.314;2022-09-09T13:38:27;292;291;
36453;PMS5003;22478;51.740;-1.314;2022-09-09T13:40:57;280;280;
36453;PMS5003;22478;51.740;-1.314;2022-09-09T13:43:26;277;276;
36453;PMS5003;22478;51.740;-1.314;2022-09-09T13:45:56;276;276;
36453;PMS5003;22478;51.740;-1.314;2022-09-09T13:48:25;283;283;
36453;PMS5003;22478;51.740;-1.314;2022-09-09T13:50:54;283;283;
36453;PMS5003;22478;51.740;-1.314;2022-09-09T13:53:23;278;277;
36453;PMS5003;22478;51.740;-1.314;2022-09-09T13:55:51;266;264;
36453;PMS5003;22478;51.740;-1.314;2022-09-09T13:58:18;280;280;
36453;PMS5003;22478;51.740;-1.314;2022-09-09T14:00:46;288;288;
36453;PMS5003;22478;51.740;-1.314;2022-09-09T14:03:13;275;275;
36453;PMS5003;22478;51.740;-1.314;2022-09-09T14:05:41;274;272;
36453;PMS5003;22478;51.740;-1.314;2022-09-09T14:08:11;286;286;
36453;PMS5003;22478;51.740;-1.314;2022-09-09T14:10:44;267;267;
36453;PMS5003;22478;51.740;-1.314;2022-09-09T14:13:11;280;280;
36453;PMS5003;22478;51.740;-1.314;2022-09-09T14:15:39;287;287;
36453;PMS5003;22478;51.740;-1.314;2022-09-09T14:18:08;290;288;
36453;PMS5003;22478;51.740;-1.314;2022-09-09T14:20:38;287;287;
36453;PMS5003;22478;51.740;-1.314;2022-09-09T14:23:05;288;288;
36453;PMS5003;22478;51.740;-1.314;2022-09-09T14:25:36;286;286;
36453;PMS5003;22478;51.740;-1.314;2022-09-09T14:28:07;290;290;
36453;PMS5003;22478;51.740;-1.314;2022-09-09T14:30:36;293;292;
36453;PMS5003;22478;51.740;-1.314;2022-09-09T14:33:04;270;270;
36453;PMS5003;22478;51.740;-1.314;2022-09-09T14:35:31;275;273;
36453;PMS5003;22478;51.740;-1.314;2022-09-09T14:38:01;288;287;
36453;PMS5003;22478;51.740;-1.314;2022-09-09T14:40:29;281;281;
36453;PMS5003;22478;51.740;-1.314;2022-09-09T14:42:57;279;279;
36453;PMS5003;22478;51.740;-1.314;2022-09-09T14:45:25;285;285;
36453;PMS5003;22478;51.740;-1.314;2022-09-09T14:47:54;268;268;
36453;PMS5003;22478;51.740;-1.314;2022-09-09T14:50:22;275;275;
36453;PMS5003;22478;51.740;-1.314;2022-09-09T14:52:50;278;278;
36453;PMS5003;22478;51.740;-1.314;2022-09-09T14:55:18;268;268;
36453;PMS5003;22478;51.740;-1.314;2022-09-09T14:57:45;268;266;
36453;PMS5003;22478;51.740;-1.314;2022-09-09T15:00:12;270;269;
36453;PMS5003;22478;51.740;-1.314;2022-09-09T15:02:40;263;263;
36453;PMS5003;22478;51.740;-1.314;2022-09-09T15:05:08;283;283;
36453;PMS5003;22478;51.740;-1.314;2022-09-09T15:07:36;270;269;
36453;PMS5003;22478;51.740;-1.314;2022-09-09T15:10:05;264;263;
36453;PMS5003;22478;51.740;-1.314;2022-09-09T15:12:33;263;263;
36453;PMS5003;22478;51.740;-1.314;2022-09-09T15:15:02;261;261;
36453;PMS5003;22478;51.740;-1.314;2022-09-09T15:17:31;263;263;
36453;PMS5003;22478;51.740;-1.314;2022-09-09T15:19:58;259;257;
36453;PMS5003;22478;51.740;-1.314;2022-09-09T15:22:26;273;273;
36453;PMS5003;22478;51.740;-1.314;2022-09-09T15:24:53;270;270;
36453;PMS5003;22478;51.740;-1.314;2022-09-09T15:27:21;240;239;
36453;PMS5003;22478;51.740;-1.314;2022-09-09T15:29:48;239;239;
36453;PMS5003;22478;51.740;-1.314;2022-09-09T15:32:17;245;245;
36453;PMS5003;22478;51.740;-1.314;2022-09-09T15:34:45;238;238;
36453;PMS5003;22478;51.740;-1.314;2022-09-09T15:37:13;243;243;
36453;PMS5003;22478;51.740;-1.314;2022-09-09T15:39:41;239;239;
36453;PMS5003;22478;51.740;-1.314;2022-09-09T15:42:10;242;240;
36453;PMS5003;22478;51.740;-1.314;2022-09-09T15:44:38;262;261;
36453;PMS5003;22478;51.740;-1.314;2022-09-09T15:47:06;243;243;
36453;PMS5003;22478;51.740;-1.314;2022-09-09T15:49:34;302;302;
36453;PMS5003;22478;51.740;-1.314;2022-09-09T15:52:03;291;289;
36453;PMS5003;22478;51.740;-1.314;2022-09-09T15:54:31;258;258;